Time;durP1;ratioP1;P1;durP2;ratioP2;P2;SDS_P1;SDS_P2;PMS_P1;PMS_P2;Temp;Humidity;BMP_temperature;BMP_pressure;BME280_temperature;BME280_humidity;BME280_pressure;Samples;Min_cycle;Max_cycle;Signal;HPM_P1;HPM_P2
2023/09/10 00:00:22;;;;;;;0.50;0.20;;;;;;;18.67;100.00;100390.94;5002861;28;20477;-48
2023/09/10 00:02:48;;;;;;;0.50;0.20;;;;;;;18.51;100.00;100399.06;5000698;28;20931;-49
2023/09/10 00:05:15;;;;;;;0.50;0.20;;;;;;;18.53;100.00;100392.63;5005391;28;20450;-48
2023/09/10 00:07:42;;;;;;;0.50;0.20;;;;;;;18.61;100.00;100390.31;5005626;28;20456;-49
2023/09/10 00:10:09;;;;;;;1.30;1.03;;;;;;;18.47;100.00;100387.56;5001683;28;20504;-49
2023/09/10 00:12:35;;;;;;;0.50;0.20;;;;;;;18.34;100.00;100382.06;5000502;28;20460;-48
2023/09/10 00:15:04;;;;;;;0.50;0.30;;;;;;;18.32;100.00;100378.59;5004512;28;20556;-48
2023/09/10 00:17:30;;;;;;;0.50;0.20;;;;;;;18.46;100.00;100387.66;5007144;28;20899;-49
2023/09/10 00:19:57;;;;;;;0.50;0.20;;;;;;;18.45;100.00;100383.25;5003122;28;20475;-48
2023/09/10 00:22:23;;;;;;;0.50;0.20;;;;;;;18.46;100.00;100382.28;5008888;28;20460;-49
2023/09/10 00:24:50;;;;;;;0.50;0.20;;;;;;;18.43;100.00;100383.34;4996735;28;20947;-49
2023/09/10 00:27:16;;;;;;;0.50;0.20;;;;;;;18.40;100.00;100380.84;5007010;28;20477;-48
2023/09/10 00:29:43;;;;;;;0.50;0.20;;;;;;;18.39;100.00;100383.63;5002984;28;20504;-48
2023/09/10 00:32:09;;;;;;;0.50;0.20;;;;;;;18.39;100.00;100381.81;5000240;28;20552;-49
2023/09/10 00:34:36;;;;;;;0.50;0.20;;;;;;;18.32;100.00;100378.59;5004356;28;20489;-50
2023/09/10 00:37:07;;;;;;;0.50;0.20;;;;;;;18.42;100.00;100384.31;4999852;28;20539;-49
2023/09/10 00:39:33;;;;;;;0.50;0.20;;;;;;;18.28;100.00;100376.19;5002749;28;20861;-49
2023/09/10 00:42:00;;;;;;;0.50;0.20;;;;;;;18.26;100.00;100372.72;5006707;28;20450;-49
2023/09/10 00:44:27;;;;;;;0.50;0.20;;;;;;;18.28;100.00;100371.66;5004425;28;20449;-49
2023/09/10 00:46:54;;;;;;;0.50;0.20;;;;;;;18.32;100.00;100375.91;5011683;28;20535;-49
2023/09/10 00:49:21;;;;;;;0.50;0.20;;;;;;;18.15;100.00;100372.47;5007091;28;20476;-50
2023/09/10 00:51:48;;;;;;;0.50;0.20;;;;;;;18.17;100.00;100379.50;4999970;28;20875;-49
2023/09/10 00:54:16;;;;;;;0.50;0.20;;;;;;;18.16;100.00;100374.22;5009077;28;20545;-48
2023/09/10 00:56:43;;;;;;;0.50;0.20;;;;;;;18.20;100.00;100373.94;5025773;28;20523;-50
2023/09/10 00:59:10;;;;;;;0.50;0.20;;;;;;;18.05;100.00;100372.13;5000761;28;20452;-48
2023/09/10 01:01:38;;;;;;;0.43;0.20;;;;;;;18.07;100.00;100372.91;5006243;28;20821;-49
2023/09/10 01:04:05;;;;;;;0.50;0.20;;;;;;;17.92;100.00;100373.81;5005379;28;20742;-50
2023/09/10 01:06:31;;;;;;;0.50;0.20;;;;;;;18.02;100.00;100375.00;4999481;28;20532;-50
2023/09/10 01:08:58;;;;;;;0.47;0.20;;;;;;;18.05;100.00;100380.22;4999449;28;20477;-48
2023/09/10 01:11:42;;;;;;;0.40;0.20;;;;;;;18.00;100.00;100374.22;5005616;28;20869;-48
2023/09/10 01:14:18;;;;;;;0.50;0.20;;;;;;;18.02;100.00;100378.56;5006114;28;20570;-48
2023/09/10 01:16:59;;;;;;;0.50;0.20;;;;;;;17.96;100.00;100373.56;5002756;28;20498;-49
2023/09/10 01:19:46;;;;;;;0.50;0.20;;;;;;;17.79;100.00;100375.44;5006026;28;20497;-49
2023/09/10 01:22:17;;;;;;;0.50;0.20;;;;;;;17.82;100.00;100370.78;5006276;28;20891;-49
2023/09/10 01:24:46;;;;;;;0.50;0.20;;;;;;;17.86;100.00;100375.03;4995536;28;20476;-49
2023/09/10 01:27:14;;;;;;;0.40;0.20;;;;;;;17.86;100.00;100374.16;5006063;28;20484;-49
2023/09/10 01:29:41;;;;;;;0.50;0.20;;;;;;;17.86;100.00;100375.03;5002193;28;20473;-49
2023/09/10 01:32:14;;;;;;;0.53;0.40;;;;;;;17.78;100.00;100379.97;4998521;28;20519;-48
2023/09/10 01:34:53;;;;;;;1.27;1.27;;;;;;;17.85;100.00;100377.81;5003303;28;20524;-49
2023/09/10 01:37:43;;;;;;;0.43;0.20;;;;;;;17.77;100.00;100376.41;4999061;28;20506;-50
2023/09/10 01:40:18;;;;;;;0.50;0.20;;;;;;;17.82;100.00;100378.84;4999016;28;21017;-48
2023/09/10 01:42:48;;;;;;;0.50;0.30;;;;;;;17.79;100.00;100365.56;5002221;28;20457;-48
2023/09/10 01:45:15;;;;;;;0.50;0.20;;;;;;;17.78;100.00;100366.53;5008349;28;20949;-48
2023/09/10 01:47:42;;;;;;;0.40;0.20;;;;;;;17.72;100.00;100370.44;5011994;28;20973;-50
2023/09/10 01:50:09;;;;;;;0.50;0.20;;;;;;;17.69;100.00;100367.06;4998836;28;20492;-49
2023/09/10 01:52:36;;;;;;;0.40;0.20;;;;;;;17.73;100.00;100364.09;5001784;28;20449;-49
2023/09/10 01:55:03;;;;;;;0.47;0.27;;;;;;;17.67;100.00;100372.47;5014472;28;20553;-49
2023/09/10 01:57:30;;;;;;;0.43;0.20;;;;;;;17.68;100.00;100371.56;5020617;28;20467;-49
2023/09/10 01:59:56;;;;;;;0.50;0.20;;;;;;;17.65;100.00;100366.31;4999004;28;20903;-49
2023/09/10 02:02:23;;;;;;;0.40;0.20;;;;;;;17.71;100.00;100367.84;5000053;28;20812;-49
2023/09/10 02:04:49;;;;;;;0.50;0.20;;;;;;;17.79;100.00;100373.63;4999116;28;20443;-49
2023/09/10 02:07:16;;;;;;;0.60;0.60;;;;;;;17.75;100.00;100370.25;5000807;28;20462;-48
2023/09/10 02:09:42;;;;;;;0.50;0.20;;;;;;;17.69;100.00;100367.94;5005536;28;20910;-49
2023/09/10 02:12:09;;;;;;;0.50;0.40;;;;;;;17.75;100.00;100369.41;5004411;28;20453;-49
2023/09/10 02:14:36;;;;;;;0.40;0.20;;;;;;;17.67;100.00;100371.59;5003004;28;20838;-49
2023/09/10 02:17:02;;;;;;;0.50;0.20;;;;;;;17.70;100.00;100376.88;5004460;28;20511;-49
2023/09/10 02:19:29;;;;;;;0.40;0.20;;;;;;;17.63;100.00;100372.75;4998863;28;20538;-49
2023/09/10 02:21:57;;;;;;;0.40;0.20;;;;;;;17.53;100.00;100374.19;5014516;28;20484;-49
2023/09/10 02:24:23;;;;;;;0.50;0.20;;;;;;;17.58;100.00;100369.44;5001914;28;20500;-48
2023/09/10 02:26:50;;;;;;;0.50;0.30;;;;;;;17.55;100.00;100375.00;5003430;28;20446;-47
2023/09/10 02:29:17;;;;;;;0.40;0.20;;;;;;;17.43;100.00;100374.72;5009070;28;20470;-47
2023/09/10 02:31:43;;;;;;;0.40;0.20;;;;;;;17.43;100.00;100366.66;5006868;28;20475;-47
2023/09/10 02:34:10;;;;;;;0.40;0.20;;;;;;;17.46;100.00;100366.50;5002407;28;20622;-48
2023/09/10 02:36:36;;;;;;;0.40;0.20;;;;;;;17.43;100.00;100369.34;5003028;28;20943;-48
2023/09/10 02:39:03;;;;;;;0.40;0.20;;;;;;;17.45;100.00;100374.66;5013751;28;20469;-48
2023/09/10 02:41:29;;;;;;;0.40;0.20;;;;;;;17.36;100.00;100375.16;5008730;28;20523;-47
2023/09/10 02:43:56;;;;;;;0.40;0.20;;;;;;;17.33;100.00;100373.50;5002134;28;20870;-50
2023/09/10 02:46:25;;;;;;;0.43;0.20;;;;;;;17.31;100.00;100366.47;5014894;28;20543;-47
2023/09/10 02:48:51;;;;;;;0.40;0.20;;;;;;;17.21;100.00;100371.47;5002392;28;20480;-48
2023/09/10 02:51:18;;;;;;;0.40;0.20;;;;;;;17.29;100.00;100374.63;5002015;28;20496;-50
2023/09/10 02:53:44;;;;;;;0.40;0.20;;;;;;;17.23;100.00;100376.78;5011848;28;20452;-48
2023/09/10 02:56:11;;;;;;;0.40;0.20;;;;;;;17.17;100.00;100373.47;5027876;28;20483;-48
2023/09/10 02:58:39;;;;;;;0.40;0.20;;;;;;;17.17;100.00;100375.28;5007232;28;21017;-48
2023/09/10 03:01:06;;;;;;;0.50;0.30;;;;;;;17.09;100.00;100378.38;5008892;28;20460;-48
2023/09/10 03:03:33;;;;;;;0.40;0.20;;;;;;;17.37;100.00;100380.44;5003070;28;20453;-48
2023/09/10 03:06:00;;;;;;;0.50;0.30;;;;;;;17.30;100.00;100380.88;5001803;28;20453;-48
2023/09/10 03:08:27;;;;;;;0.40;0.20;;;;;;;17.23;100.00;100371.41;5006960;28;21010;-48
2023/09/10 03:10:53;;;;;;;0.50;0.20;;;;;;;17.29;100.00;100384.50;5008430;28;20453;-49
2023/09/10 03:13:20;;;;;;;0.40;0.20;;;;;;;17.26;100.00;100380.16;5003084;28;20449;-48
2023/09/10 03:15:48;;;;;;;0.50;0.20;;;;;;;17.18;100.00;100377.91;5001495;28;20555;-47
2023/09/10 03:18:14;;;;;;;0.40;0.20;;;;;;;17.12;100.00;100383.59;5006393;28;20505;-47
2023/09/10 03:20:41;;;;;;;0.40;0.20;;;;;;;17.20;100.00;100385.00;5010395;28;20535;-48
2023/09/10 03:23:08;;;;;;;0.40;0.20;;;;;;;17.09;100.00;100382.88;5005420;28;20450;-49
2023/09/10 03:25:36;;;;;;;0.40;0.20;;;;;;;17.09;100.00;100388.25;5000107;28;20485;-47
2023/09/10 03:28:03;;;;;;;0.40;0.20;;;;;;;17.11;100.00;100389.91;5005239;28;20449;-47
2023/09/10 03:30:30;;;;;;;0.40;0.20;;;;;;;17.04;100.00;100379.59;4997011;28;20551;-48
2023/09/10 03:32:57;;;;;;;0.43;0.20;;;;;;;17.08;100.00;100381.16;5002747;28;20523;-48
2023/09/10 03:35:23;;;;;;;0.50;0.20;;;;;;;17.09;100.00;100377.53;5001172;28;20520;-48
2023/09/10 03:37:50;;;;;;;0.40;0.20;;;;;;;17.24;100.00;100387.44;5012193;28;20456;-48
2023/09/10 03:40:17;;;;;;;0.40;0.20;;;;;;;17.16;100.00;100378.94;5001000;28;20486;-48
2023/09/10 03:42:43;;;;;;;0.40;0.20;;;;;;;17.09;100.00;100377.53;5005066;28;20536;-48
2023/09/10 03:45:10;;;;;;;0.40;0.20;;;;;;;17.06;100.00;100372.31;5010116;28;20503;-48
2023/09/10 03:47:37;;;;;;;0.40;0.20;;;;;;;17.10;100.00;100373.88;5014218;28;20453;-48
2023/09/10 03:50:04;;;;;;;0.40;0.20;;;;;;;16.94;100.00;100383.72;5001088;28;20881;-47
2023/09/10 03:52:31;;;;;;;0.40;0.20;;;;;;;16.96;100.00;100381.81;5010513;28;20448;-49
2023/09/10 03:54:58;;;;;;;3.00;2.07;;;;;;;16.93;100.00;100385.53;5014265;28;20582;-48
2023/09/10 03:57:24;;;;;;;0.40;0.20;;;;;;;16.98;100.00;100380.78;5023113;28;20460;-48
2023/09/10 03:59:51;;;;;;;0.40;0.20;;;;;;;16.88;100.00;100380.41;5000846;28;20471;-48
2023/09/10 04:02:17;;;;;;;0.40;0.20;;;;;;;16.80;100.00;100382.63;5003371;28;20424;-48
2023/09/10 04:04:44;;;;;;;0.40;0.20;;;;;;;16.86;100.00;100379.63;5007459;28;20509;-48
2023/09/10 04:07:10;;;;;;;0.47;0.20;;;;;;;16.77;100.00;100380.13;5001584;28;20549;-47
2023/09/10 04:09:37;;;;;;;0.40;0.20;;;;;;;16.83;100.00;100387.84;5006895;28;20523;-48
2023/09/10 04:12:04;;;;;;;0.40;0.20;;;;;;;16.85;100.00;100387.75;5005428;28;20647;-47
2023/09/10 04:14:31;;;;;;;0.40;0.20;;;;;;;16.73;100.00;100385.72;5000378;28;20567;-48
2023/09/10 04:16:57;;;;;;;0.90;0.87;;;;;;;16.62;100.00;100390.75;5002517;28;20450;-47
2023/09/10 04:19:24;;;;;;;0.40;0.20;;;;;;;16.60;100.00;100388.16;5006982;28;20528;-48
2023/09/10 04:21:50;;;;;;;0.40;0.20;;;;;;;16.48;100.00;100391.47;4994884;28;20934;-49
2023/09/10 04:24:17;;;;;;;0.43;0.27;;;;;;;16.56;100.00;100387.41;4999696;28;20514;-48
2023/09/10 04:26:43;;;;;;;0.40;0.20;;;;;;;16.56;100.00;100392.78;5004409;28;20456;-48
2023/09/10 04:29:10;;;;;;;0.40;0.20;;;;;;;16.64;100.00;100387.03;5005706;28;20473;-48
2023/09/10 04:31:41;;;;;;;0.40;0.20;;;;;;;16.69;100.00;100395.75;5010574;28;20448;-48
2023/09/10 04:34:07;;;;;;;0.40;0.20;;;;;;;16.62;100.00;100399.69;4999977;28;20451;-48
2023/09/10 04:36:34;;;;;;;0.40;0.20;;;;;;;16.44;100.00;100398.78;5009332;28;20506;-48
2023/09/10 04:39:06;;;;;;;0.40;0.20;;;;;;;16.32;100.00;100403.94;5000087;28;20499;-48
2023/09/10 04:41:33;;;;;;;0.50;0.40;;;;;;;16.32;100.00;100399.44;5000293;28;20481;-48
2023/09/10 04:43:59;;;;;;;0.40;0.20;;;;;;;16.33;100.00;100400.31;5000361;28;20573;-48
2023/09/10 04:46:27;;;;;;;0.40;0.20;;;;;;;16.23;100.00;100403.44;5012766;28;20441;-49
2023/09/10 04:48:54;;;;;;;0.40;0.20;;;;;;;16.31;100.00;100408.44;5005842;28;20473;-48
2023/09/10 04:51:20;;;;;;;0.40;0.20;;;;;;;16.19;100.00;100406.34;5006536;28;20474;-49
2023/09/10 04:53:47;;;;;;;0.40;0.20;;;;;;;16.22;100.00;100399.03;5000520;28;20991;-48
2023/09/10 04:56:13;;;;;;;0.40;0.20;;;;;;;16.18;100.00;100410.00;5026060;28;20545;-49
2023/09/10 04:58:40;;;;;;;0.40;0.20;;;;;;;16.14;100.00;100417.28;5004780;28;20497;-48
2023/09/10 05:01:07;;;;;;;0.40;0.20;;;;;;;16.20;100.00;100419.69;5006464;28;20893;-48
2023/09/10 05:03:33;;;;;;;0.40;0.20;;;;;;;16.36;100.00;100429.66;4999444;28;20454;-48
2023/09/10 05:06:02;;;;;;;0.40;0.20;;;;;;;16.43;100.00;100425.69;5006264;28;20964;-48
2023/09/10 05:08:29;;;;;;;0.40;0.20;;;;;;;16.47;100.00;100427.31;5001192;28;20460;-48
2023/09/10 05:10:55;;;;;;;0.40;0.20;;;;;;;16.40;100.00;100428.53;4999566;28;20461;-47
2023/09/10 05:13:22;;;;;;;2.67;2.50;;;;;;;16.37;100.00;100423.34;5004462;28;20915;-47
2023/09/10 05:15:49;;;;;;;0.40;0.20;;;;;;;16.45;100.00;100431.88;5006032;28;20860;-48
2023/09/10 05:18:15;;;;;;;0.40;0.20;;;;;;;16.26;100.00;100424.72;5001555;28;20511;-48
2023/09/10 05:20:42;;;;;;;0.40;0.20;;;;;;;16.52;100.00;100431.47;4999372;28;20461;-48
2023/09/10 05:23:08;;;;;;;0.47;0.30;;;;;;;16.88;100.00;100436.81;5004094;28;20941;-48
2023/09/10 05:25:36;;;;;;;0.40;0.20;;;;;;;17.00;100.00;100431.75;4994904;28;20453;-48
2023/09/10 05:28:04;;;;;;;0.50;0.20;;;;;;;17.21;100.00;100437.78;5003169;28;20495;-48
2023/09/10 05:30:31;;;;;;;0.40;0.20;;;;;;;17.44;100.00;100440.09;4995388;28;20542;-48
2023/09/10 05:32:57;;;;;;;0.40;0.30;;;;;;;17.51;100.00;100429.88;5002754;28;20520;-48
2023/09/10 05:35:24;;;;;;;0.40;0.20;;;;;;;17.68;100.00;100440.56;5005239;28;20491;-48
2023/09/10 05:37:51;;;;;;;0.40;0.20;;;;;;;17.66;99.41;100442.47;5002828;28;20461;-49
2023/09/10 05:40:17;;;;;;;0.40;0.20;;;;;;;17.58;98.95;100447.41;4999082;28;20475;-47
2023/09/10 05:42:44;;;;;;;0.40;0.20;;;;;;;17.65;99.08;100444.28;5006518;28;20456;-48
2023/09/10 05:45:11;;;;;;;0.40;0.20;;;;;;;17.86;100.00;100442.28;5002824;28;20453;-48
2023/09/10 05:47:38;;;;;;;0.40;0.20;;;;;;;17.81;100.00;100449.69;5012392;28;20456;-48
2023/09/10 05:50:05;;;;;;;0.40;0.20;;;;;;;17.63;100.00;100445.31;5006362;28;20885;-48
2023/09/10 05:52:31;;;;;;;1.07;1.07;;;;;;;17.76;100.00;100441.03;5002949;28;20560;-48
2023/09/10 05:54:58;;;;;;;0.40;0.20;;;;;;;17.92;100.00;100447.28;5012885;28;20487;-48
2023/09/10 05:57:24;;;;;;;0.40;0.30;;;;;;;17.97;100.00;100453.28;5007688;28;20465;-49
2023/09/10 05:59:51;;;;;;;0.40;0.30;;;;;;;18.05;100.00;100455.53;5002747;28;21039;-48
2023/09/10 06:02:17;;;;;;;0.40;0.20;;;;;;;18.00;100.00;100453.13;5009405;28;20575;-48
2023/09/10 06:04:44;;;;;;;0.40;0.20;;;;;;;18.03;100.00;100450.25;5003147;28;20470;-48
2023/09/10 06:07:11;;;;;;;0.50;0.30;;;;;;;18.20;100.00;100461.84;5004936;28;20552;-49
2023/09/10 06:09:37;;;;;;;0.40;0.20;;;;;;;18.24;100.00;100455.38;5001339;28;20471;-48
2023/09/10 06:12:04;;;;;;;0.40;0.20;;;;;;;18.28;100.00;100456.91;5015472;28;20823;-48
2023/09/10 06:14:34;;;;;;;0.40;0.20;;;;;;;18.39;100.00;100457.16;5002682;28;20445;-47
2023/09/10 06:17:02;;;;;;;0.40;0.20;;;;;;;18.56;100.00;100464.25;5003619;28;20453;-48
2023/09/10 06:19:29;;;;;;;0.40;0.20;;;;;;;18.46;100.00;100452.28;5009509;28;20495;-48
2023/09/10 06:21:56;;;;;;;0.50;0.40;;;;;;;18.62;100.00;100462.03;5008712;28;20444;-48
2023/09/10 06:24:22;;;;;;;0.40;0.20;;;;;;;18.48;100.00;100461.13;4999079;28;20449;-47
2023/09/10 06:26:49;;;;;;;0.40;0.20;;;;;;;18.63;100.00;100469.19;5008184;28;20550;-48
2023/09/10 06:29:15;;;;;;;0.40;0.20;;;;;;;18.70;99.99;100467.03;5007211;28;20480;-49
2023/09/10 06:31:42;;;;;;;0.40;0.20;;;;;;;18.86;100.00;100470.53;4996016;28;20964;-48
2023/09/10 06:34:08;;;;;;;0.40;0.20;;;;;;;18.86;100.00;100461.59;5000880;28;20456;-48
2023/09/10 06:36:35;;;;;;;0.40;0.20;;;;;;;18.83;100.00;100464.47;5011697;28;21005;-51
2023/09/10 06:39:03;;;;;;;0.40;0.20;;;;;;;19.02;99.95;100475.88;5007918;28;20466;-48
2023/09/10 06:41:30;;;;;;;0.40;0.20;;;;;;;19.00;100.00;100475.09;5011869;28;20456;-49
2023/09/10 06:43:57;;;;;;;0.40;0.30;;;;;;;19.03;100.00;100469.50;5003342;28;20449;-48
2023/09/10 06:46:23;;;;;;;0.40;0.20;;;;;;;19.02;100.00;100477.69;5009209;28;20539;-48
2023/09/10 06:48:50;;;;;;;29.07;4.47;;;;;;;19.20;100.00;100477.47;5007929;28;20477;-49
2023/09/10 06:51:16;;;;;;;0.50;0.20;;;;;;;19.28;100.00;100482.34;5008889;28;20423;-49
2023/09/10 06:53:43;;;;;;;0.40;0.20;;;;;;;19.41;100.00;100472.56;5002997;28;20937;-49
2023/09/10 06:56:09;;;;;;;0.50;0.20;;;;;;;19.67;100.00;100475.47;5027602;28;20970;-50
2023/09/10 06:58:36;;;;;;;0.50;0.20;;;;;;;19.59;100.00;100477.78;5009614;28;20459;-48
2023/09/10 07:01:05;;;;;;;0.50;0.20;;;;;;;19.63;100.00;100480.22;5007112;28;20935;-49
2023/09/10 07:03:34;;;;;;;0.50;0.20;;;;;;;19.81;100.00;100486.25;4998704;28;20453;-49
2023/09/10 07:06:05;;;;;;;0.40;0.20;;;;;;;20.16;99.82;100475.91;5008105;28;20946;-48
2023/09/10 07:08:34;;;;;;;0.43;0.20;;;;;;;19.92;99.72;100482.88;5004021;28;20457;-49
2023/09/10 07:11:00;;;;;;;0.50;0.20;;;;;;;19.98;99.97;100477.94;5007756;28;20432;-49
2023/09/10 07:13:29;;;;;;;0.50;0.43;;;;;;;20.11;100.00;100492.38;5008717;28;20423;-49
2023/09/10 07:15:56;;;;;;;0.43;0.20;;;;;;;20.00;100.00;100481.41;5001118;28;20488;-49
2023/09/10 07:18:22;;;;;;;0.50;0.20;;;;;;;19.98;100.00;100477.06;5003245;28;20449;-48
2023/09/10 07:20:49;;;;;;;0.50;0.20;;;;;;;20.45;100.00;100476.72;5010121;28;20535;-48
2023/09/10 07:23:15;;;;;;;0.40;0.20;;;;;;;20.49;99.73;100480.94;5008745;28;20491;-48
2023/09/10 07:25:42;;;;;;;0.50;0.20;;;;;;;20.60;98.96;100481.09;5001400;28;20799;-49
2023/09/10 07:28:08;;;;;;;0.40;0.20;;;;;;;20.55;99.05;100480.50;4996268;28;20440;-49
2023/09/10 07:30:35;;;;;;;0.50;0.20;;;;;;;20.77;99.02;100485.34;5007409;28;20477;-48
2023/09/10 07:33:02;;;;;;;0.50;0.20;;;;;;;21.00;97.80;100483.78;5002944;28;20457;-46
2023/09/10 07:35:28;;;;;;;0.40;0.20;;;;;;;21.12;96.57;100491.06;5007041;28;20496;-49
2023/09/10 07:37:55;;;;;;;0.50;0.20;;;;;;;21.37;96.02;100489.34;5005124;28;20511;-48
2023/09/10 07:40:21;;;;;;;0.50;0.47;;;;;;;21.19;96.62;100492.34;4998118;28;21004;-48
2023/09/10 07:42:48;;;;;;;0.47;0.20;;;;;;;21.05;96.71;100487.03;5005326;28;20461;-47
2023/09/10 07:45:14;;;;;;;0.50;0.20;;;;;;;21.17;97.29;100488.88;5007631;28;20452;-48
2023/09/10 07:47:41;;;;;;;0.50;0.30;;;;;;;21.34;96.53;100492.28;5001526;28;20548;-47
2023/09/10 07:50:08;;;;;;;0.43;0.23;;;;;;;21.63;96.26;100492.94;5000592;28;20467;-47
2023/09/10 07:52:35;;;;;;;0.50;0.20;;;;;;;21.71;94.73;100486.00;5009166;28;20457;-48
2023/09/10 07:55:01;;;;;;;0.40;0.20;;;;;;;21.84;93.54;100492.25;5014024;28;20483;-48
2023/09/10 07:57:28;;;;;;;0.43;0.27;;;;;;;22.13;93.49;100492.00;5008618;28;20440;-48
2023/09/10 07:59:54;;;;;;;0.50;0.30;;;;;;;21.90;93.60;100490.94;5006694;28;20459;-48
2023/09/10 08:02:26;;;;;;;0.50;0.30;;;;;;;21.96;93.41;100482.41;5005823;28;20552;-48
2023/09/10 08:04:53;;;;;;;0.50;0.20;;;;;;;22.02;92.94;100483.78;5000788;28;20442;-47
2023/09/10 08:07:20;;;;;;;0.50;0.30;;;;;;;22.50;91.68;100484.75;5010425;28;20451;-48
2023/09/10 08:09:46;;;;;;;0.50;0.20;;;;;;;22.68;90.39;100491.47;5007033;28;20500;-48
2023/09/10 08:12:13;;;;;;;0.50;0.30;;;;;;;22.90;89.43;100493.47;5006749;28;20450;-49
2023/09/10 08:14:41;;;;;;;0.50;0.20;;;;;;;22.81;89.81;100490.53;5000653;28;20463;-47
2023/09/10 08:17:07;;;;;;;0.50;0.20;;;;;;;22.77;89.31;100493.50;5012896;28;20492;-48
2023/09/10 08:19:34;;;;;;;0.47;0.23;;;;;;;23.05;89.90;100496.84;5006226;28;20475;-48
2023/09/10 08:22:00;;;;;;;0.50;0.30;;;;;;;23.07;89.54;100494.00;4999206;28;20504;-49
2023/09/10 08:24:27;;;;;;;0.50;0.20;;;;;;;22.62;89.67;100497.38;5007162;28;20486;-50
2023/09/10 08:26:53;;;;;;;0.43;0.20;;;;;;;23.14;89.36;100484.41;5006904;28;20463;-50
2023/09/10 08:29:20;;;;;;;0.77;0.77;;;;;;;23.13;89.47;100488.94;5001775;28;20448;-50
2023/09/10 08:31:46;;;;;;;0.50;0.27;;;;;;;23.17;88.46;100487.75;5000714;28;20933;-50
2023/09/10 08:34:13;;;;;;;0.50;0.30;;;;;;;23.63;87.82;100485.00;5000375;28;20452;-50
2023/09/10 08:36:40;;;;;;;0.50;0.20;;;;;;;23.39;85.82;100483.34;5002899;28;20861;-50
2023/09/10 08:39:06;;;;;;;0.50;0.20;;;;;;;23.11;87.00;100474.66;4994088;28;20459;-50
2023/09/10 08:41:54;;;;;;;0.50;0.30;;;;;;;23.33;86.73;100474.72;5006609;28;20487;-50
2023/09/10 08:44:22;;;;;;;0.50;0.30;;;;;;;23.48;87.25;100474.47;5000871;28;20981;-50
2023/09/10 08:46:51;;;;;;;0.50;0.23;;;;;;;23.71;86.44;100478.09;5009872;28;20980;-51
2023/09/10 08:49:20;;;;;;;0.50;0.30;;;;;;;23.82;85.22;100478.09;5012049;28;20797;-50
2023/09/10 08:51:47;;;;;;;0.50;0.30;;;;;;;23.85;84.57;100477.88;5002155;28;20499;-50
2023/09/10 08:54:15;;;;;;;0.50;0.20;;;;;;;24.13;83.56;100480.06;5005110;28;20428;-50
2023/09/10 08:56:42;;;;;;;0.50;0.30;;;;;;;24.11;84.28;100478.44;5025014;28;20462;-50
2023/09/10 08:59:10;;;;;;;0.50;0.30;;;;;;;24.18;84.26;100476.97;5006553;28;20490;-50
2023/09/10 09:01:37;;;;;;;0.50;0.30;;;;;;;24.12;84.76;100480.16;5008487;28;20465;-50
2023/09/10 09:04:04;;;;;;;0.93;0.93;;;;;;;24.51;83.86;100482.31;5000290;28;20504;-50
2023/09/10 09:06:35;;;;;;;0.60;0.60;;;;;;;24.96;82.50;100467.72;5009100;28;20419;-50
2023/09/10 09:09:05;;;;;;;0.50;0.30;;;;;;;25.06;81.90;100472.22;5005882;28;20469;-50
2023/09/10 09:11:35;;;;;;;0.50;0.20;;;;;;;24.88;82.17;100476.50;5000520;28;20448;-50
2023/09/10 09:14:07;;;;;;;0.50;0.30;;;;;;;25.40;81.28;100478.34;5010448;28;20448;-50
2023/09/10 09:16:34;;;;;;;0.50;0.30;;;;;;;25.45;80.31;100475.22;5002263;28;20481;-50
2023/09/10 09:19:10;;;;;;;0.50;0.30;;;;;;;25.64;80.52;100475.34;5018268;28;20807;-51
2023/09/10 09:21:40;;;;;;;0.50;0.30;;;;;;;25.52;80.43;100470.09;5020539;28;20789;-50
2023/09/10 09:24:09;;;;;;;0.50;0.20;;;;;;;25.45;80.66;100469.75;4995847;28;20461;-50
2023/09/10 09:26:36;;;;;;;0.50;0.30;;;;;;;25.32;79.59;100471.84;4997929;28;20493;-50
2023/09/10 09:29:03;;;;;;;0.50;0.20;;;;;;;25.65;78.42;100470.75;4998845;28;20509;-51
2023/09/10 09:31:30;;;;;;;0.50;0.30;;;;;;;25.92;78.40;100467.44;4999291;28;20424;-51
2023/09/10 09:33:56;;;;;;;0.50;0.30;;;;;;;26.25;78.99;100466.25;5005552;28;20485;-50
2023/09/10 09:36:27;;;;;;;0.50;0.30;;;;;;;26.05;77.76;100456.31;5005334;28;20458;-51
2023/09/10 09:38:55;;;;;;;0.50;0.30;;;;;;;25.96;77.39;100447.97;4999500;28;20545;-51
2023/09/10 09:41:21;;;;;;;0.50;0.20;;;;;;;26.09;76.28;100449.56;5009704;28;20503;-49
2023/09/10 09:43:48;;;;;;;0.50;0.20;;;;;;;26.39;75.99;100445.94;5002250;28;20423;-51
2023/09/10 09:46:16;;;;;;;0.50;0.30;;;;;;;26.59;75.20;100434.06;5009206;28;20435;-51
2023/09/10 09:48:44;;;;;;;0.50;0.27;;;;;;;26.74;73.64;100442.66;5004739;28;20452;-51
2023/09/10 09:51:13;;;;;;;0.50;0.30;;;;;;;27.06;72.63;100439.63;5005901;28;20536;-51
2023/09/10 09:53:40;;;;;;;0.60;0.40;;;;;;;27.12;72.58;100439.03;5000520;28;20462;-51
2023/09/10 09:56:07;;;;;;;0.50;0.30;;;;;;;27.56;70.97;100428.44;5024942;28;20532;-51
2023/09/10 09:58:34;;;;;;;0.50;0.30;;;;;;;27.48;70.60;100436.50;5004903;28;20461;-51
2023/09/10 10:01:00;;;;;;;0.50;0.30;;;;;;;27.50;69.81;100429.03;5005481;28;20449;-51
2023/09/10 10:03:33;;;;;;;0.50;0.20;;;;;;;27.27;69.26;100429.38;5002978;28;20461;-50
2023/09/10 10:06:01;;;;;;;0.50;0.40;;;;;;;27.43;68.28;100426.06;5005508;28;20430;-50
2023/09/10 10:08:29;;;;;;;0.50;0.30;;;;;;;27.21;67.76;100426.38;5000944;28;20805;-50
2023/09/10 10:10:56;;;;;;;0.50;0.27;;;;;;;27.38;66.68;100420.16;5003605;28;20423;-50
2023/09/10 10:13:25;;;;;;;0.50;0.30;;;;;;;27.66;66.78;100413.75;4996556;28;20453;-50
2023/09/10 10:15:54;;;;;;;0.50;0.30;;;;;;;27.97;67.47;100417.06;5005571;28;20467;-51
2023/09/10 10:18:23;;;;;;;0.50;0.30;;;;;;;27.92;66.61;100410.31;5002350;28;20531;-51
2023/09/10 10:20:50;;;;;;;0.50;0.23;;;;;;;27.66;67.07;100413.75;4998682;28;20453;-51
2023/09/10 10:23:18;;;;;;;0.50;0.40;;;;;;;27.96;66.55;100403.53;5001665;28;20528;-51
2023/09/10 10:25:52;;;;;;;0.50;0.30;;;;;;;28.37;65.30;100393.06;5005302;28;20477;-51
2023/09/10 10:28:20;;;;;;;0.50;0.30;;;;;;;28.46;64.52;100389.41;5003167;28;20480;-51
2023/09/10 10:31:07;;;;;;;0.50;0.23;;;;;;;28.49;64.26;100386.34;4998531;28;20540;-51
2023/09/10 10:33:37;;;;;;;0.60;0.60;;;;;;;28.61;65.11;100387.81;4998692;28;20453;-49
2023/09/10 10:36:12;;;;;;;0.50;0.30;;;;;;;28.68;64.10;100393.53;5002966;28;20567;-48
2023/09/10 10:38:43;;;;;;;0.50;0.30;;;;;;;28.78;62.11;100394.28;5004695;28;20477;-51
2023/09/10 10:41:16;;;;;;;0.50;0.30;;;;;;;28.93;62.05;100389.16;4997596;28;20817;-51
2023/09/10 10:43:50;;;;;;;0.50;0.30;;;;;;;28.95;62.30;100377.03;5008361;28;20485;-50
2023/09/10 10:46:19;;;;;;;0.50;0.23;;;;;;;29.23;61.58;100393.31;5007352;28;20440;-51
2023/09/10 10:48:46;;;;;;;0.50;0.30;;;;;;;29.04;59.01;100378.78;5008976;28;20480;-51
2023/09/10 10:51:15;;;;;;;0.50;0.30;;;;;;;29.19;59.56;100374.47;5007970;28;20452;-51
2023/09/10 10:53:43;;;;;;;0.50;0.30;;;;;;;29.39;58.55;100368.75;5008156;28;20479;-51
2023/09/10 10:56:10;;;;;;;0.50;0.30;;;;;;;29.51;59.36;100377.56;5022773;28;20522;-51
2023/09/10 10:58:41;;;;;;;0.50;0.30;;;;;;;29.38;58.17;100376.09;5006769;28;20499;-50
2023/09/10 11:01:10;;;;;;;0.50;0.30;;;;;;;29.71;58.36;100373.53;5008558;28;20449;-51
2023/09/10 11:03:37;;;;;;;18.97;0.83;;;;;;;29.38;57.80;100365.16;5003880;28;20449;-51
2023/09/10 11:06:07;;;;;;;0.50;0.30;;;;;;;29.73;57.78;100358.63;5001634;28;20477;-51
2023/09/10 11:08:38;;;;;;;0.50;0.30;;;;;;;29.88;58.48;100356.16;5005299;28;20497;-51
2023/09/10 11:11:09;;;;;;;2.10;2.00;;;;;;;29.94;55.79;100354.59;5008157;28;21021;-51
2023/09/10 11:14:01;;;;;;;3.13;2.93;;;;;;;29.75;56.27;100359.34;5005791;28;20448;-51
2023/09/10 11:16:30;;;;;;;0.50;0.30;;;;;;;29.98;57.75;100354.09;5003052;28;20543;-51
2023/09/10 11:18:56;;;;;;;0.50;0.30;;;;;;;29.78;56.64;100356.28;5001406;28;20528;-51
2023/09/10 11:22:01;;;;;;;0.50;0.30;;;;;;;30.15;56.46;100344.03;5006398;28;20816;-51